Timeline UpdatesTrip UpdatesNews PostsPvt PostsTravel TipsAdmin PostsConv PostsFollowed PostsChat RequestsBlog PostsPNR Posts

Disclaimer
Search
 
 
Wed Aug 27, 2014 18:22:02 ISTHomeTrainsΣChainsAtlasPNRForumGalleryNewsFAQTripsMembersLoginFeedback
No Recent News for this Train
Other Trains in the News **new
Latest...
.
Mon Feb 03, 2014 (06:12PM)
⇐ Return Journey: Train# 56914

56913/Bangalore- Hubli Fast Passenger (UnReserved)

Jan 06 2014 (1:32PM)
Change Departure Station:
Change Arrival Station:
Post a Train Travel TipPost a Train Travel Tip **new
Post a Comment/Question/Picture/VideoPost a Comment/Question/Picture/Video
Pantry/Catering
✕ NO Pantry Car
✕ NO Catering
RSA - Rake Sharing
56916-56915-56914-56911-56912-56913; Entry# 411256
Rake/Coach Composition
2 SLR, 22 Unreserved Coaches, first 11 including 1 SLR will be detached at RRB(Birur Jn) and will run to SHIMOGA TOWN(SMET)
Loco
KJM WDM2/3a WDG3a
News    PNR    Forum    Time-Table    Availability    Fare Chart    Map    Arr/Dep History    Trips    Gallery    ΣChains    X/O    Timeline    
Travel Time: 9h 9m    32 halts    Distance: 381 km    Avg Speed: 41 km/hr
Type: Passenger
Zone: SWR/South Western
Departs @ 06:30 (Avg 2m late)
Platform# 10
SMTWTFS
Bangalore City Junction/SBC 
Arrives @ 15:39 (Avg 1h 4m late)
Platform# ???
SMTWTFS
Byadgi/BYD 

32 halts. 53 intermediate Stations between Bangalore City Junction and Byadgi

Show ALL intermediate Stations  Show Old Time-Table

#CodeStation NameX/OArrivesAvgDepartsAvgHaltPFDay#KmSpeedElevZoneAddress
1SBC»Bangalore City Junction (10)»  -06:30+21010.042903mSWRBengaluru-560023, Karnataka
2MWMMalleswaram (2)X  06:34+006:35+01m--12.828916mSWRBengaluru, Karnataka
3YPRYesvantpur Junction (6)X  06:41+406:42+41m--15.654919mSWRBengaluru 560022, Karnataka
4BAWChik Banavar (3)O06:51-06:52-1m--113.657881mSWRBengaluru, Karnataka
5DBLDodbele  07:17+1007:18+101m3137.462907mSWRNational Highway 4, Karnataka
6KIATKyatsandra (4)  07:44+907:45+91m--164.324841mSWRTumkur, Karnataka
7TKTumkur (3)  07:58+408:00+52m--169.537823mSWRTumkur, Karnataka
8GBBGubbi (1)X  08:29+508:30+91m1187.654780mSWRGubbi, Karnataka
9AMSAAmmasandra (1)  08:59+709:00+91m11113.857858mSWRTumkur Dist., Karnataka
10BSNBanasandra (1)  09:06+909:07+101m11119.574851mSWRTumkur Dist., Karnataka
11ARGPAralaguppeX  09:11-09:12-1m--1124.446843mSWRState Highway 74, Karnataka
12RDIKardi09:19+1409:20+161m--1129.846843mSWRKaradi Cross, Karnataka
13TTRTiptur (4)  09:34+1709:35+191m--1140.648860mSWRTiptur, Karnataka
14HVLHonnavalli Road (3)O  09:47+2309:48+231m--1150.279888mSWRNational Highway 206, Karnataka
15ASKArsikere Junction (3)X  10:00+2710:15+2115m--1166.162816mSWRArsikere, Karnataka
16BVRBanavar (2)X  10:30+2510:31+251m--1181.760790mSWRNH 73, Karnataka
17VNRDevanur (2)  10:38+2910:39+291m--1188.758757mSWRDevanur Railway Station, Karnataka
18DRUKadur Junction (3)XO  10:56+3110:57+321m--1205.215774mSWRKadur, Karnataka
19RRBBirur Junction (3)11:20+2311:50+2130m--1211.160802mSWRBirur, Karnataka
20AJPAjjampur (2)  12:08+2712:09+271m--1229.259752mSWRAjjampur, Karnataka
21SHVShivani  12:20+3112:21+321m--1239.960779mSWRShivani Rd, Karnataka
22HSDHosdurga Road (1)  12:31+3612:32+371m11249.955765mSWRChitradurga Dist., Karnataka
23RGIRamgiri  12:44+3712:45+401m--1261.049705mSWRShivani Rd, Karnataka
24HLKHolalkere  12:56+4212:57+451m--1270.046661mSWRNational Highway 13, Karnataka
25JRUChikjajur Junction (3)  13:10+4413:12+442m--1279.959677mSWRChikkajajur, Karnataka
26SLUSasaluX  13:22+4513:23+481m--1289.768660mSWRState Highway 47, Karnataka
27MYKMayakonda (2)  13:30+5013:31+511m--1297.661646mSWRState Highway 47, Karnataka
28KAGKodaganur  13:39+5313:40+531m--1305.832633mSWRState Highway 47, Karnataka
29DVGDavangere (2)  14:18+2414:20+252m--1326.031598mSWRDavanagere, Karnataka
30HRRHarihar (3)X  14:45+2814:50+345m--1338.954553mSWRHarihar, Karnataka
31CLIChalgeri (2)  15:01+4415:02+501m--1348.847574mSWRChalageri, Karnataka
32RNRRanibennur (3)X  15:19+4215:20+471m--1362.255583mSWRRanebennur, Karnataka
33DADDevargudda (2)  15:29+5515:30+551m--1370.468589mSWRDevaragudda, Karnataka
34BYD•Byadgi (2)•  15:39+1:0415:40+1:051m--1380.744632mSWRNational Highway 4, Karnataka
35HVRHaveri (3)X  15:59+1:0116:00+1:061m--1394.848558mSWRHaveri, Karnataka
36KJGKarajgi (2)  16:09+1:0616:10+1:091m--1402.053550mSWRhaveri, Karnataka
37KVSKalsur  16:15-16:16-1m--1406.438541mSWRNH 48, Karnataka
38SVNRSavanur (2)X  16:29+1:0716:30+1:071m--1414.657584mSWRState Highway 6, Karnataka
39YLGYalvigi (2)  16:39+1:0916:40+1:101m--1423.260621mSWRYalvigi, Karnataka
40KALSKalas Halt  16:46-16:47-1m--1429.227663mSWRState Highway 6, Karnataka
41GDIGudgeri (2)  16:59+1:0217:00+1:041m--1434.648689mSWRGudgeri, Karnataka
42SNHSaunshi (2)  17:14+1:0817:15+1:101m--1445.936634mSWRSaunshi, Karnataka
43KNOKundgol (2)X  17:29+1:0817:30+1:091m--1454.221636mSWRKundgol, Karnataka
44UBLHubli Junction (5)  18:15+16---1469.9-640mSWRHubli - 580020, Karnataka
Scroll to Top
Scroll to Bottom